Time;durP1;ratioP1;P1;durP2;ratioP2;P2;SDS_P1;SDS_P2;PMS_P1;PMS_P2;Temp;Humidity;BMP_temperature;BMP_pressure;BME280_temperature;BME280_humidity;BME280_pressure;Samples;Min_cycle;Max_cycle;Signal;HPM_P1;HPM_P2
2021/12/08 00:01:43;;;;;;;8.85;3.92;;;-1.20;99.90;;;;;;4987729;28;20066;-73
2021/12/08 00:04:10;;;;;;;7.72;4.35;;;-1.10;99.90;;;;;;4972894;28;20062;-73
2021/12/08 00:06:37;;;;;;;6.43;3.58;;;-1.10;99.90;;;;;;4971400;28;20070;-73
2021/12/08 00:14:57;;;;;;;5.60;4.53;;;-1.00;99.90;;;;;;4971080;28;20076;-73
2021/12/08 00:17:24;;;;;;;7.15;4.57;;;-1.10;99.90;;;;;;4972779;28;20561;-73
2021/12/08 00:20:00;;;;;;;6.95;4.40;;;-1.10;99.90;;;;;;4960778;28;20050;-73
2021/12/08 00:22:32;;;;;;;6.68;4.60;;;-1.10;99.90;;;;;;4955295;28;20037;-73
2021/12/08 00:24:59;;;;;;;6.80;5.55;;;-1.10;99.90;;;;;;4952218;29;20581;-73
2021/12/08 00:27:31;;;;;;;7.65;5.78;;;-1.10;99.90;;;;;;4953269;28;20043;-73
2021/12/08 00:29:57;;;;;;;7.18;5.28;;;-1.10;99.90;;;;;;4953067;29;20701;-73
2021/12/08 00:32:31;;;;;;;6.25;4.68;;;-1.10;99.90;;;;;;4952075;28;20055;-73
2021/12/08 00:35:06;;;;;;;7.93;3.88;;;-1.10;99.90;;;;;;4953282;28;20047;-73
2021/12/08 00:37:38;;;;;;;4.95;3.28;;;-1.20;99.90;;;;;;4965262;28;20043;-73
2021/12/08 00:40:14;;;;;;;5.28;3.67;;;-1.20;99.90;;;;;;4952256;29;20046;-73
2021/12/08 00:42:47;;;;;;;7.40;3.72;;;-1.20;99.90;;;;;;4953206;29;20110;-73
2021/12/08 00:45:21;;;;;;;5.80;3.53;;;-1.20;99.90;;;;;;4951966;28;20134;-73
2021/12/08 00:47:54;;;;;;;6.18;3.47;;;-1.20;99.90;;;;;;4951627;29;20530;-73
2021/12/08 00:50:30;;;;;;;5.22;3.22;;;-1.20;99.90;;;;;;4952202;28;20047;-73
2021/12/08 00:53:03;;;;;;;5.05;3.63;;;-1.20;99.90;;;;;;4951688;29;20050;-73
2021/12/08 00:55:35;;;;;;;4.97;3.20;;;-1.20;99.90;;;;;;4951780;28;20050;-73
2021/12/08 00:58:07;;;;;;;5.07;3.60;;;-1.20;99.90;;;;;;4952877;29;20054;-73
2021/12/08 01:00:44;;;;;;;7.50;3.70;;;-1.20;99.90;;;;;;4953096;29;20125;-73
2021/12/08 01:03:11;;;;;;;6.28;3.90;;;-1.20;99.90;;;;;;4951924;28;20135;-73
2021/12/08 01:05:55;;;;;;;4.40;3.70;;;-1.20;99.90;;;;;;4967614;28;20130;-73
2021/12/08 01:08:24;;;;;;;8.38;3.45;;;-1.20;99.90;;;;;;4974679;28;20122;-73
2021/12/08 01:10:54;;;;;;;3.90;3.00;;;-1.20;99.90;;;;;;4975826;28;20066;-73
2021/12/08 01:13:27;;;;;;;6.43;3.45;;;-1.20;99.90;;;;;;4973509;28;20043;-73
2021/12/08 01:15:56;;;;;;;4.85;3.20;;;-1.20;99.90;;;;;;4974574;28;20066;-73
2021/12/08 01:18:29;;;;;;;4.43;3.55;;;-1.20;99.90;;;;;;4974533;28;20110;-73
2021/12/08 01:21:05;;;;;;;4.80;2.78;;;-1.20;99.90;;;;;;4975935;28;20405;-73
2021/12/08 01:23:38;;;;;;;4.22;2.70;;;-1.10;99.90;;;;;;4975682;28;20046;-73
2021/12/08 01:26:10;;;;;;;3.80;2.70;;;-1.10;99.90;;;;;;4974480;28;20057;-73
2021/12/08 01:28:42;;;;;;;4.88;2.38;;;-1.10;99.90;;;;;;4973729;28;20408;-73
2021/12/08 01:31:09;;;;;;;4.32;2.92;;;-1.10;99.90;;;;;;4974232;28;20137;-73
2021/12/08 01:33:41;;;;;;;4.43;2.40;;;-1.00;99.90;;;;;;4975833;28;20050;-74
2021/12/08 01:36:13;;;;;;;5.45;3.15;;;-1.00;99.90;;;;;;4975858;28;20046;-72
2021/12/08 01:38:45;;;;;;;5.18;2.58;;;-1.00;99.90;;;;;;4973204;28;20050;-73
2021/12/08 01:41:17;;;;;;;4.43;2.83;;;-1.00;99.90;;;;;;4974066;28;20406;-73
2021/12/08 01:46:39;;;;;;;4.88;2.53;;;-1.00;99.90;;;;;;4973770;28;20053;-73
2021/12/08 01:49:06;;;;;;;4.00;2.58;;;-1.00;99.90;;;;;;4990392;28;20142;-72
2021/12/08 01:51:38;;;;;;;5.63;2.83;;;-1.00;99.90;;;;;;4974041;28;20042;-73
2021/12/08 01:54:10;;;;;;;5.13;3.20;;;-1.00;99.90;;;;;;4972925;28;20042;-72
2021/12/08 01:56:38;;;;;;;4.80;3.30;;;-0.90;99.90;;;;;;4973898;28;20383;-72
2021/12/08 01:59:10;;;;;;;5.20;2.45;;;-0.90;99.90;;;;;;4973608;28;20133;-73
2021/12/08 02:01:44;;;;;;;8.52;2.90;;;-0.90;99.90;;;;;;4974602;28;20043;-75
2021/12/08 02:04:16;;;;;;;4.90;2.88;;;-0.90;99.90;;;;;;4956999;28;20036;-75
2021/12/08 02:06:48;;;;;;;3.55;2.65;;;-0.90;99.90;;;;;;4956610;28;20146;-72
2021/12/08 02:09:16;;;;;;;4.35;2.45;;;-0.90;99.90;;;;;;4973563;28;20074;-73
2021/12/08 02:11:52;;;;;;;3.63;2.17;;;-0.90;99.90;;;;;;4973000;28;20053;-72
2021/12/08 02:14:24;;;;;;;4.95;3.67;;;-0.90;99.90;;;;;;4973248;28;20055;-73
2021/12/08 02:16:55;;;;;;;5.30;4.32;;;-0.90;99.90;;;;;;4972925;28;20137;-72
2021/12/08 02:19:23;;;;;;;3.88;3.42;;;-0.90;99.90;;;;;;4973469;28;20122;-73
2021/12/08 02:21:54;;;;;;;4.53;2.75;;;-0.90;99.90;;;;;;4972724;28;20047;-72
2021/12/08 02:24:22;;;;;;;2.85;2.22;;;-0.80;99.90;;;;;;4972651;28;20153;-73
2021/12/08 02:26:55;;;;;;;3.92;2.10;;;-0.90;99.90;;;;;;4972529;28;20145;-73
2021/12/08 02:29:41;;;;;;;4.03;1.80;;;-0.90;99.90;;;;;;4973249;28;20142;-73
2021/12/08 02:48:43;;;;;;;4.32;2.33;;;-0.80;99.90;;;;;;4974089;28;20130;-73
2021/12/08 02:51:10;;;;;;;3.75;2.40;;;-0.80;99.90;;;;;;4974033;28;20058;-73
2021/12/08 02:53:37;;;;;;;2.45;2.13;;;-0.80;99.90;;;;;;4962880;28;20143;-72
2021/12/08 02:56:08;;;;;;;5.20;2.50;;;-0.80;99.90;;;;;;4953266;29;20043;-72
2021/12/08 02:58:40;;;;;;;3.28;2.45;;;-0.80;99.90;;;;;;4953286;29;20078;-73
2021/12/08 03:01:12;;;;;;;3.55;2.47;;;-0.80;99.90;;;;;;4953300;29;20138;-73
2021/12/08 03:03:39;;;;;;;3.90;2.42;;;-0.80;99.90;;;;;;4952903;28;20102;-72
2021/12/08 03:06:12;;;;;;;3.58;2.92;;;-0.80;99.90;;;;;;4953430;29;20047;-73
2021/12/08 03:08:44;;;;;;;4.07;2.70;;;-0.80;99.90;;;;;;4953023;28;20066;-73
2021/12/08 03:11:17;;;;;;;5.15;2.97;;;-0.80;99.90;;;;;;4954067;28;20286;-74
2021/12/08 03:14:09;;;;;;;4.50;3.08;;;-0.80;99.90;;;;;;4954969;29;20102;-73
2021/12/08 03:16:45;;;;;;;4.80;2.80;;;-0.80;99.90;;;;;;4937587;29;20047;-75
2021/12/08 03:19:21;;;;;;;3.95;2.70;;;-0.80;99.90;;;;;;4969916;28;20058;-73
2021/12/08 03:21:54;;;;;;;4.65;2.92;;;-0.80;99.90;;;;;;4971709;28;20483;-72
2021/12/08 03:27:07;;;;;;;4.32;2.65;;;-0.70;99.90;;;;;;4972889;28;20498;-74
2021/12/08 03:29:48;;;;;;;5.10;3.05;;;-0.80;99.90;;;;;;4988623;28;20391;-73
2021/12/08 03:32:32;;;;;;;4.82;3.10;;;-0.70;99.90;;;;;;4969498;28;20165;-73
2021/12/08 03:35:07;;;;;;;4.63;2.80;;;-0.80;99.90;;;;;;4954082;29;20131;-73
2021/12/08 03:37:42;;;;;;;4.30;3.00;;;-0.70;99.90;;;;;;4937359;29;20134;-72
2021/12/08 03:40:17;;;;;;;4.75;2.85;;;-0.70;99.90;;;;;;4937598;28;20394;-73
2021/12/08 03:42:51;;;;;;;4.07;2.50;;;-0.70;99.90;;;;;;4952544;28;20047;-73
2021/12/08 03:45:34;;;;;;;6.78;3.10;;;-0.70;99.90;;;;;;4952986;29;20041;-74
2021/12/08 03:48:09;;;;;;;4.10;3.00;;;-0.70;99.90;;;;;;4953564;29;20126;-75
2021/12/08 03:50:43;;;;;;;5.45;2.80;;;-0.70;99.90;;;;;;4953823;28;20047;-72
2021/12/08 03:53:16;;;;;;;5.07;3.03;;;-0.70;99.90;;;;;;4952646;29;20086;-74
2021/12/08 03:55:48;;;;;;;6.35;3.40;;;-0.70;99.90;;;;;;4952608;29;20043;-74
2021/12/08 03:58:16;;;;;;;4.78;3.28;;;-0.60;99.90;;;;;;4953501;28;20106;-74
2021/12/08 04:00:45;;;;;;;8.23;3.45;;;-0.60;99.90;;;;;;4952509;28;20071;-74
2021/12/08 04:03:12;;;;;;;9.60;5.80;;;-0.60;99.90;;;;;;4952164;28;20102;-72
2021/12/08 04:05:52;;;;;;;9.30;6.50;;;-0.60;99.90;;;;;;4953666;28;20465;-73
2021/12/08 04:08:31;;;;;;;19.38;11.60;;;-0.60;99.90;;;;;;4961918;28;20114;-74
2021/12/08 04:11:03;;;;;;;6.65;3.50;;;-0.60;99.90;;;;;;4967244;28;20097;-72
2021/12/08 04:13:45;;;;;;;7.40;4.35;;;-0.60;99.90;;;;;;4952270;28;20074;-74
2021/12/08 04:16:21;;;;;;;8.95;4.85;;;-0.60;99.90;;;;;;4952316;29;20035;-74
2021/12/08 04:18:53;;;;;;;16.20;8.18;;;-0.70;99.90;;;;;;4936972;29;20045;-74
2021/12/08 04:21:20;;;;;;;15.15;8.65;;;-0.70;99.90;;;;;;4936264;29;20043;-75
2021/12/08 04:23:47;;;;;;;14.32;7.78;;;-0.70;99.90;;;;;;4952227;28;20142;-74
2021/12/08 04:26:27;;;;;;;9.30;5.47;;;-0.60;99.90;;;;;;4952550;28;20099;-73
2021/12/08 04:29:01;;;;;;;9.60;5.95;;;-0.60;99.90;;;;;;4967291;28;20122;-73
2021/12/08 04:31:34;;;;;;;;;;;-0.50;99.90;;;;;;4956371;28;20328;-73
2021/12/08 04:34:05;;;;;;;9.38;5.10;;;-0.50;99.90;;;;;;4965155;28;20017;-74
2021/12/08 04:36:43;;;;;;;9.82;5.53;;;-0.50;99.90;;;;;;4974953;28;20142;-74
2021/12/08 04:39:18;;;;;;;9.10;6.63;;;-0.50;99.90;;;;;;4971740;28;20105;-74
2021/12/08 04:41:57;;;;;;;9.30;6.55;;;-0.50;99.90;;;;;;4972704;28;20034;-73
2021/12/08 04:44:37;;;;;;;7.90;4.82;;;-0.50;99.90;;;;;;4963796;28;20123;-74
2021/12/08 04:53:26;;;;;;;5.28;3.45;;;-0.40;99.90;;;;;;4964431;28;20053;-73
2021/12/08 05:06:40;;;;;;;4.70;2.92;;;-0.50;99.90;;;;;;4972352;28;20465;-73
2021/12/08 05:09:14;;;;;;;4.95;3.33;;;-0.50;99.90;;;;;;4967312;28;20050;-73
2021/12/08 05:11:52;;;;;;;5.65;3.63;;;-0.40;99.90;;;;;;4963808;28;20046;-75
2021/12/08 05:14:32;;;;;;;6.53;4.55;;;-0.40;99.90;;;;;;4973256;28;20434;-74
2021/12/08 05:17:12;;;;;;;14.77;7.57;;;-0.40;99.90;;;;;;4967068;28;20043;-74
2021/12/08 05:19:48;;;;;;;12.85;7.57;;;-0.40;99.90;;;;;;4979236;28;20115;-74
2021/12/08 05:22:28;;;;;;;11.13;6.13;;;-0.30;99.90;;;;;;4973870;28;20070;-74
2021/12/08 05:25:03;;;;;;;12.68;5.88;;;-0.30;99.90;;;;;;4958706;28;20142;-74
2021/12/08 05:27:40;;;;;;;66.05;29.80;;;-0.30;99.90;;;;;;4964332;28;20139;-73
2021/12/08 05:30:12;;;;;;;77.97;31.77;;;-0.30;99.90;;;;;;4968936;28;20113;-74
2021/12/08 05:32:44;;;;;;;13.82;5.78;;;-0.30;99.90;;;;;;4963468;28;20126;-74
2021/12/08 05:35:16;;;;;;;7.13;3.97;;;-0.30;99.90;;;;;;4974001;28;20046;-74
2021/12/08 05:37:47;;;;;;;4.72;3.38;;;-0.30;99.90;;;;;;4957846;28;20442;-74
2021/12/08 05:40:26;;;;;;;4.82;3.30;;;-0.30;99.90;;;;;;4958523;28;20402;-73
2021/12/08 05:42:53;;;;;;;3.47;2.60;;;-0.40;99.90;;;;;;4968136;28;20135;-75
2021/12/08 05:45:26;;;;;;;5.18;2.75;;;-0.50;99.90;;;;;;4973706;28;20568;-74
2021/12/08 05:47:54;;;;;;;5.00;3.13;;;-0.50;99.90;;;;;;4971444;28;20138;-74
2021/12/08 05:50:42;;;;;;;3.72;2.63;;;-0.50;99.90;;;;;;4973207;28;20047;-73
2021/12/08 05:53:14;;;;;;;4.28;2.83;;;-0.60;99.90;;;;;;4972135;28;20130;-73
2021/12/08 05:55:47;;;;;;;6.28;3.10;;;-0.60;99.90;;;;;;4960558;28;20224;-74
2021/12/08 05:58:16;;;;;;;5.68;3.70;;;-0.60;99.90;;;;;;4955092;28;20059;-75
2021/12/08 06:00:49;;;;;;;5.18;3.42;;;-0.60;99.90;;;;;;4972724;28;20042;-75
2021/12/08 06:03:17;;;;;;;4.57;2.60;;;-0.60;99.90;;;;;;4972378;28;20128;-74
2021/12/08 06:05:46;;;;;;;4.18;2.88;;;-0.60;99.90;;;;;;4955368;28;20593;-74
2021/12/08 06:08:14;;;;;;;6.82;3.28;;;-0.70;99.90;;;;;;4954877;28;20138;-73
2021/12/08 06:10:46;;;;;;;7.63;3.28;;;-0.70;99.90;;;;;;4954642;29;20133;-74
2021/12/08 06:13:18;;;;;;;4.45;3.30;;;-0.70;99.90;;;;;;4953032;28;20150;-74
2021/12/08 06:15:50;;;;;;;5.45;3.03;;;-0.70;99.90;;;;;;4952900;29;20504;-74
2021/12/08 06:18:23;;;;;;;4.30;2.90;;;-0.70;99.90;;;;;;4954257;28;20134;-75
2021/12/08 06:20:58;;;;;;;4.97;3.30;;;-0.70;99.90;;;;;;4965400;28;20557;-74
2021/12/08 06:23:32;;;;;;;5.00;3.53;;;-0.70;99.90;;;;;;4968746;28;20042;-74
2021/12/08 06:25:59;;;;;;;4.43;3.50;;;-0.70;99.90;;;;;;4952623;29;20498;-74
2021/12/08 06:28:27;;;;;;;6.72;3.90;;;-0.80;99.90;;;;;;4956309;28;20587;-73
2021/12/08 06:30:59;;;;;;;5.18;3.17;;;-0.80;99.90;;;;;;4977621;28;20038;-74
2021/12/08 06:33:31;;;;;;;5.15;3.30;;;-0.80;99.90;;;;;;4971429;28;20085;-74
2021/12/08 06:36:04;;;;;;;4.63;3.75;;;-0.70;99.90;;;;;;4971760;28;20066;-75
2021/12/08 06:38:37;;;;;;;6.00;3.92;;;-0.70;99.90;;;;;;4967555;28;20043;-75
2021/12/08 06:41:27;;;;;;;5.65;3.95;;;-0.60;99.90;;;;;;4971730;28;20039;-75
2021/12/08 06:44:06;;;;;;;9.02;6.03;;;-0.50;99.90;;;;;;4987647;28;20049;-74
2021/12/08 06:46:33;;;;;;;10.32;6.88;;;-0.50;99.90;;;;;;4973105;28;20046;-75
2021/12/08 06:49:03;;;;;;;13.98;8.65;;;-0.40;99.90;;;;;;4972202;28;20051;-74
2021/12/08 06:51:42;;;;;;;12.02;8.10;;;-0.40;99.90;;;;;;4969957;28;20078;-75
2021/12/08 06:54:19;;;;;;;15.40;9.52;;;-0.40;99.90;;;;;;4958732;28;20097;-74
2021/12/08 06:57:02;;;;;;;18.55;11.75;;;-0.30;99.90;;;;;;4965891;28;20074;-73
2021/12/08 06:59:36;;;;;;;18.95;10.93;;;-0.30;99.90;;;;;;4966061;28;20098;-74
2021/12/08 07:02:18;;;;;;;17.75;11.63;;;-0.30;99.90;;;;;;4940743;28;20035;-75
2021/12/08 07:05:12;;;;;;;14.50;11.10;;;-0.30;99.90;;;;;;4971761;28;20038;-74
2021/12/08 07:07:42;;;;;;;15.48;9.15;;;-0.30;99.90;;;;;;4971721;28;20055;-73
2021/12/08 07:10:28;;;;;;;12.75;10.07;;;-0.20;99.90;;;;;;4953167;28;20102;-75
2021/12/08 07:13:09;;;;;;;8.73;7.18;;;-0.20;99.90;;;;;;4938948;29;20051;-74
2021/12/08 07:15:56;;;;;;;10.90;6.85;;;-0.20;99.90;;;;;;4976480;28;20122;-75
2021/12/08 07:18:57;;;;;;;5.43;3.65;;;-0.20;99.90;;;;;;4984452;28;20492;-74
2021/12/08 07:21:33;;;;;;;5.35;3.58;;;-0.20;99.90;;;;;;4985060;28;20449;-74
2021/12/08 07:24:11;;;;;;;6.85;4.70;;;-0.30;99.90;;;;;;4972471;28;20097;-73
2021/12/08 07:26:40;;;;;;;7.25;5.32;;;-0.20;99.90;;;;;;4973135;28;20078;-74
2021/12/08 07:29:14;;;;;;;7.72;5.30;;;-0.20;99.90;;;;;;4974266;28;20046;-75
2021/12/08 07:31:52;;;;;;;8.48;5.85;;;-0.10;99.90;;;;;;4967777;28;20038;-74
2021/12/08 07:34:25;;;;;;;7.47;5.03;;;-0.10;99.90;;;;;;4991547;28;20497;-74
2021/12/08 07:36:59;;;;;;;9.02;5.07;;;-0.10;99.90;;;;;;4972613;28;20408;-74
2021/12/08 07:39:29;;;;;;;17.55;9.27;;;-0.10;99.90;;;;;;4978674;28;20042;-74
2021/12/08 07:42:07;;;;;;;20.52;12.38;;;0.00;99.90;;;;;;4965046;28;20042;-74
2021/12/08 07:44:34;;;;;;;18.73;10.70;;;0.00;99.90;;;;;;4971645;28;20073;-74
2021/12/08 07:47:09;;;;;;;13.70;8.05;;;0.00;99.90;;;;;;4974136;28;20124;-73
2021/12/08 07:49:44;;;;;;;11.90;7.38;;;0.10;99.90;;;;;;4978358;28;20226;-75
2021/12/08 07:52:28;;;;;;;13.35;6.82;;;0.00;99.90;;;;;;4968920;28;20497;-75
2021/12/08 07:55:06;;;;;;;8.45;5.30;;;0.10;99.90;;;;;;4971599;28;20588;-74
2021/12/08 07:57:38;;;;;;;8.38;5.32;;;0.10;99.90;;;;;;4970814;28;20043;-73
2021/12/08 08:00:19;;;;;;;11.27;6.80;;;0.10;99.90;;;;;;4959445;28;20802;-74
2021/12/08 08:02:46;;;;;;;10.52;6.53;;;0.10;99.90;;;;;;4972493;28;20074;-75
2021/12/08 08:05:22;;;;;;;9.95;7.05;;;0.10;99.90;;;;;;4955395;28;20131;-74
2021/12/08 08:07:56;;;;;;;11.80;6.40;;;0.10;99.90;;;;;;4960078;28;20142;-75
2021/12/08 08:10:24;;;;;;;11.95;8.20;;;0.10;99.90;;;;;;4951426;29;20107;-74
2021/12/08 08:13:00;;;;;;;12.70;8.17;;;0.10;99.90;;;;;;4955996;28;20046;-74
2021/12/08 08:15:37;;;;;;;11.82;8.02;;;0.20;99.90;;;;;;4982716;28;20097;-74
2021/12/08 08:18:11;;;;;;;11.93;7.30;;;0.20;99.90;;;;;;4969573;28;20131;-73
2021/12/08 08:20:47;;;;;;;10.25;6.32;;;0.30;99.90;;;;;;4957211;28;20133;-75
2021/12/08 08:23:22;;;;;;;9.43;5.50;;;0.30;99.90;;;;;;4957501;28;20043;-75
2021/12/08 08:25:51;;;;;;;12.98;5.63;;;0.30;99.90;;;;;;4967225;28;20095;-74
2021/12/08 08:28:23;;;;;;;12.23;8.52;;;0.30;99.90;;;;;;4953724;28;20038;-75
2021/12/08 08:31:03;;;;;;;20.02;12.70;;;0.30;99.90;;;;;;4954464;28;20046;-75
2021/12/08 08:33:36;;;;;;;18.20;11.73;;;0.40;99.90;;;;;;4969346;28;20596;-74
2021/12/08 08:36:12;;;;;;;15.35;10.43;;;0.40;99.90;;;;;;4955813;28;20047;-74
2021/12/08 08:38:54;;;;;;;20.92;11.48;;;0.50;99.90;;;;;;4963939;28;20038;-74
2021/12/08 08:41:35;;;;;;;17.80;8.50;;;0.50;99.90;;;;;;4974528;28;20073;-75
2021/12/08 08:44:09;;;;;;;10.43;7.32;;;0.50;99.90;;;;;;4976586;28;20135;-73
2021/12/08 08:46:48;;;;;;;11.75;7.05;;;0.50;99.90;;;;;;4960411;28;20038;-76
2021/12/08 08:49:24;;;;;;;14.23;9.13;;;0.50;99.90;;;;;;4978659;28;20081;-75
2021/12/08 08:52:02;;;;;;;23.33;13.52;;;0.50;99.90;;;;;;4977730;28;20050;-74
2021/12/08 08:54:38;;;;;;;12.57;8.20;;;0.50;99.90;;;;;;4956126;28;20065;-73
2021/12/08 08:57:17;;;;;;;24.35;15.80;;;0.60;99.90;;;;;;4956671;28;20051;-74
2021/12/08 08:59:54;;;;;;;10.93;8.77;;;0.60;99.90;;;;;;4985053;28;20058;-74
2021/12/08 09:02:30;;;;;;;11.43;7.88;;;0.60;99.90;;;;;;4973819;28;20054;-74
2021/12/08 09:05:03;;;;;;;16.65;8.88;;;0.60;99.90;;;;;;4977963;28;20550;-74
2021/12/08 09:07:34;;;;;;;;;;;0.70;99.90;;;;;;4970018;28;20074;-74
2021/12/08 09:10:23;;;;;;;12.70;7.78;;;0.70;99.90;;;;;;4963782;28;20014;-74
2021/12/08 09:13:27;;;;;;;13.43;9.20;;;0.80;99.90;;;;;;4953597;28;20038;-74
2021/12/08 09:16:02;;;;;;;28.98;18.67;;;0.80;99.90;;;;;;4953912;28;20569;-74
2021/12/08 09:18:52;;;;;;;11.07;7.45;;;0.90;99.90;;;;;;4967478;28;20073;-74
2021/12/08 09:22:08;;;;;;;13.52;9.20;;;1.00;99.90;;;;;;4967801;28;20039;-74
2021/12/08 09:24:48;;;;;;;14.68;9.38;;;1.00;99.90;;;;;;4936795;28;20058;-74
2021/12/08 09:27:20;;;;;;;20.92;14.27;;;1.00;99.90;;;;;;4968626;28;20121;-74
2021/12/08 09:29:56;;;;;;;12.70;8.10;;;1.00;99.90;;;;;;4970678;28;20094;-74
2021/12/08 09:32:40;;;;;;;9.32;6.25;;;1.10;99.90;;;;;;4952193;28;20093;-73
2021/12/08 09:35:26;;;;;;;14.27;6.60;;;1.10;99.90;;;;;;4964945;28;20482;-73
2021/12/08 09:38:09;;;;;;;9.02;6.07;;;1.20;99.90;;;;;;4972649;28;20074;-73
2021/12/08 09:40:50;;;;;;;9.50;6.57;;;1.30;99.90;;;;;;4964601;28;20106;-73
2021/12/08 09:43:26;;;;;;;11.68;6.47;;;1.30;99.90;;;;;;4969284;28;20097;-74
2021/12/08 09:46:03;;;;;;;10.18;6.95;;;1.30;99.90;;;;;;4973884;28;20071;-80
2021/12/08 09:48:41;;;;;;;13.90;11.48;;;1.30;99.90;;;;;;4975187;28;20420;-73
2021/12/08 09:51:15;;;;;;;13.50;9.25;;;1.40;99.90;;;;;;4978286;28;20038;-73
2021/12/08 09:53:46;;;;;;;10.38;7.05;;;1.40;99.90;;;;;;4984382;28;20050;-74
2021/12/08 09:56:13;;;;;;;10.43;6.80;;;1.40;99.90;;;;;;4957659;28;20043;-74
2021/12/08 09:58:46;;;;;;;10.85;6.70;;;1.40;99.90;;;;;;4975746;28;20044;-74
2021/12/08 10:01:20;;;;;;;10.20;7.53;;;1.50;99.90;;;;;;4957621;28;20034;-74
2021/12/08 10:03:54;;;;;;;9.80;7.28;;;1.40;99.90;;;;;;4969109;28;20050;-74
2021/12/08 10:06:22;;;;;;;10.55;7.35;;;1.40;99.90;;;;;;4974805;28;20039;-74
2021/12/08 10:08:57;;;;;;;10.93;7.78;;;1.40;99.90;;;;;;4987716;28;20043;-74
2021/12/08 10:11:28;;;;;;;11.02;7.53;;;1.40;99.90;;;;;;4971751;28;20712;-75
2021/12/08 10:14:01;;;;;;;11.52;7.40;;;1.40;99.90;;;;;;4948471;29;20051;-75
2021/12/08 10:16:29;;;;;;;11.73;7.75;;;1.40;99.90;;;;;;4967224;28;20075;-75
2021/12/08 10:19:03;;;;;;;14.52;9.25;;;1.40;99.90;;;;;;4949709;28;20049;-75
2021/12/08 10:21:38;;;;;;;12.50;9.25;;;1.50;99.90;;;;;;4984329;28;20074;-75
2021/12/08 10:24:18;;;;;;;12.57;10.73;;;1.50;99.90;;;;;;4972207;28;20086;-75
2021/12/08 10:26:53;;;;;;;17.23;11.88;;;1.50;99.90;;;;;;4972320;28;20043;-76
2021/12/08 10:29:27;;;;;;;15.43;11.20;;;1.50;99.90;;;;;;4973245;28;20046;-76
2021/12/08 10:31:55;;;;;;;17.08;11.30;;;1.50;99.90;;;;;;4972130;28;20198;-76
2021/12/08 10:34:41;;;;;;;14.35;11.80;;;1.60;99.90;;;;;;4991347;28;20054;-76
2021/12/08 10:37:14;;;;;;;17.92;12.43;;;1.60;99.90;;;;;;4958483;28;20137;-76
2021/12/08 10:39:49;;;;;;;20.30;13.10;;;1.50;99.90;;;;;;4990961;28;20157;-75
2021/12/08 10:42:29;;;;;;;18.95;12.30;;;1.50;99.90;;;;;;4975434;28;20141;-75
2021/12/08 10:45:13;;;;;;;12.05;9.30;;;1.50;99.90;;;;;;4976523;28;20069;-76
2021/12/08 10:47:49;;;;;;;14.38;10.10;;;1.50;99.90;;;;;;4991582;28;20133;-76
2021/12/08 10:56:19;;;;;;;13.32;9.80;;;1.50;99.90;;;;;;4991725;28;20081;-76
2021/12/08 10:58:50;;;;;;;12.95;9.73;;;1.50;99.90;;;;;;4977524;28;20064;-76
2021/12/08 11:01:23;;;;;;;11.65;9.65;;;1.50;99.90;;;;;;4991597;28;20049;-75
2021/12/08 11:04:01;;;;;;;15.10;10.57;;;1.50;99.90;;;;;;4991579;28;20069;-76
2021/12/08 11:06:33;;;;;;;15.50;10.45;;;1.60;99.90;;;;;;4991924;28;20042;-76
2021/12/08 11:09:16;;;;;;;12.65;9.25;;;1.60;99.90;;;;;;4991516;28;20481;-76
2021/12/08 11:11:48;;;;;;;13.65;9.98;;;1.50;99.90;;;;;;4991527;28;20064;-76
2021/12/08 11:14:15;;;;;;;12.40;9.75;;;1.50;99.90;;;;;;4974462;28;20046;-76
2021/12/08 11:16:43;;;;;;;13.27;8.63;;;1.60;99.90;;;;;;4959764;28;20059;-76
2021/12/08 11:19:21;;;;;;;13.30;9.82;;;1.60;99.90;;;;;;4956504;28;20125;-76
2021/12/08 11:21:54;;;;;;;13.98;9.00;;;1.70;99.90;;;;;;4969212;28;20039;-76
2021/12/08 11:24:35;;;;;;;13.55;9.75;;;1.70;99.90;;;;;;4965202;28;20098;-76
2021/12/08 11:27:05;;;;;;;26.65;18.65;;;1.70;99.90;;;;;;4952019;29;20114;-76
2021/12/08 11:29:39;;;;;;;23.50;17.60;;;1.70;99.90;;;;;;4952771;28;20437;-76
2021/12/08 11:32:09;;;;;;;17.73;12.65;;;1.70;99.90;;;;;;4970468;28;20043;-76
2021/12/08 11:34:46;;;;;;;16.58;11.80;;;1.60;99.90;;;;;;4967617;28;20053;-76
2021/12/08 11:37:22;;;;;;;16.38;13.43;;;1.70;99.90;;;;;;4967524;28;20125;-76
2021/12/08 11:39:58;;;;;;;21.05;14.55;;;1.70;99.90;;;;;;4971641;28;20523;-76
2021/12/08 11:42:32;;;;;;;18.40;14.15;;;1.70;99.90;;;;;;4955388;28;20145;-76
2021/12/08 11:45:10;;;;;;;20.13;14.35;;;1.70;99.90;;;;;;4965137;28;20089;-76
2021/12/08 11:47:42;;;;;;;17.08;12.95;;;1.70;99.90;;;;;;4977981;28;20130;-76
2021/12/08 11:50:21;;;;;;;14.20;10.70;;;1.80;99.90;;;;;;4971400;28;20070;-76
2021/12/08 11:52:54;;;;;;;14.07;9.88;;;1.80;99.90;;;;;;4947388;28;20306;-76
2021/12/08 11:55:26;;;;;;;15.07;9.45;;;1.80;99.90;;;;;;4966618;28;20118;-76
2021/12/08 11:58:01;;;;;;;11.77;7.68;;;1.80;99.90;;;;;;4955141;28;20035;-75
2021/12/08 12:00:37;;;;;;;12.35;9.15;;;1.70;99.90;;;;;;4971499;28;20051;-76
2021/12/08 12:03:09;;;;;;;14.20;10.05;;;1.70;99.90;;;;;;4951768;28;20150;-76
2021/12/08 12:05:42;;;;;;;12.50;10.10;;;1.60;99.90;;;;;;4952023;29;20077;-76
2021/12/08 12:08:17;;;;;;;11.25;8.95;;;1.60;99.90;;;;;;4936294;28;20043;-76
2021/12/08 12:10:53;;;;;;;17.85;11.77;;;1.60;99.90;;;;;;4951934;28;20111;-76
2021/12/08 12:13:25;;;;;;;15.07;11.85;;;1.60;99.90;;;;;;4953324;28;20058;-76
2021/12/08 12:15:57;;;;;;;11.27;9.57;;;1.60;99.90;;;;;;4952029;28;20137;-76
2021/12/08 12:18:32;;;;;;;15.63;11.40;;;1.70;99.90;;;;;;4953117;29;20043;-76
2021/12/08 12:21:37;;;;;;;13.63;10.15;;;1.70;99.90;;;;;;4961625;28;20074;-76
2021/12/08 12:24:37;;;;;;;18.33;13.52;;;1.70;99.90;;;;;;4972773;28;20042;-75
2021/12/08 12:27:31;;;;;;;21.45;15.77;;;1.70;99.90;;;;;;4948630;28;20127;-76
2021/12/08 12:30:05;;;;;;;26.58;17.33;;;1.70;99.90;;;;;;4963255;28;20043;-76
2021/12/08 12:32:38;;;;;;;12.20;9.23;;;1.70;99.90;;;;;;4971913;28;20047;-76
2021/12/08 12:35:25;;;;;;;18.15;14.00;;;1.70;99.90;;;;;;4956772;28;20138;-76
2021/12/08 12:38:11;;;;;;;12.80;9.52;;;1.70;99.90;;;;;;4965186;28;20098;-75
2021/12/08 12:40:46;;;;;;;14.80;10.70;;;1.60;99.90;;;;;;4948836;28;20122;-76
2021/12/08 12:43:27;;;;;;;17.50;12.75;;;1.60;99.90;;;;;;4963183;28;20075;-76
2021/12/08 12:46:05;;;;;;;11.73;8.32;;;1.70;99.90;;;;;;4968122;28;20047;-76
2021/12/08 12:48:32;;;;;;;10.85;7.82;;;1.70;99.90;;;;;;4969948;28;20146;-76
2021/12/08 12:51:11;;;;;;;9.50;6.47;;;1.70;99.90;;;;;;4971914;28;20129;-75
2021/12/08 12:53:43;;;;;;;8.13;6.32;;;1.70;99.90;;;;;;4971171;28;20051;-76
2021/12/08 12:56:38;;;;;;;6.95;6.25;;;1.70;99.90;;;;;;4964762;28;20043;-75
2021/12/08 12:59:16;;;;;;;10.77;7.88;;;1.70;99.90;;;;;;4951073;28;20043;-75
2021/12/08 13:01:46;;;;;;;9.88;6.57;;;1.70;99.90;;;;;;4964726;28;20386;-75
2021/12/08 13:04:20;;;;;;;9.95;7.35;;;1.70;99.90;;;;;;4974122;28;20051;-75
2021/12/08 13:07:01;;;;;;;9.90;6.70;;;1.60;99.90;;;;;;4972594;28;20098;-75
2021/12/08 13:09:37;;;;;;;8.98;6.80;;;1.60;99.90;;;;;;4975220;28;20122;-75
2021/12/08 13:12:27;;;;;;;11.20;6.57;;;1.60;99.90;;;;;;4958888;28;20062;-75
2021/12/08 13:15:13;;;;;;;9.40;7.25;;;1.60;99.90;;;;;;4958469;28;20054;-76
2021/12/08 13:18:04;;;;;;;9.13;6.70;;;1.60;99.90;;;;;;4965377;28;20054;-76
2021/12/08 13:20:57;;;;;;;9.30;7.10;;;1.60;99.90;;;;;;4964844;28;20129;-76
2021/12/08 13:23:30;;;;;;;11.15;7.68;;;1.60;99.90;;;;;;4970747;28;20445;-76
2021/12/08 13:26:03;;;;;;;14.05;9.68;;;1.60;99.90;;;;;;4977407;28;20108;-75
2021/12/08 13:31:37;;;;;;;19.98;15.55;;;1.60;99.90;;;;;;4973526;28;20074;-76
2021/12/08 13:34:10;;;;;;;28.40;21.10;;;1.60;99.90;;;;;;4969298;28;20079;-75
2021/12/08 13:36:40;;;;;;;20.00;16.58;;;1.60;99.90;;;;;;4953560;28;20465;-75
2021/12/08 13:39:20;;;;;;;28.08;18.55;;;1.50;99.90;;;;;;4973706;28;20471;-75
2021/12/08 13:42:11;;;;;;;23.50;16.83;;;1.50;99.90;;;;;;4972367;28;20117;-76
2021/12/08 13:44:53;;;;;;;18.63;13.07;;;1.50;99.90;;;;;;4955338;28;20470;-76
2021/12/08 13:47:46;;;;;;;17.30;11.60;;;1.50;99.90;;;;;;4944984;28;20127;-76
2021/12/08 13:50:25;;;;;;;18.45;13.45;;;1.50;99.90;;;;;;4966036;28;20093;-76
2021/12/08 13:53:15;;;;;;;16.77;11.43;;;1.50;99.90;;;;;;4971478;28;20129;-76
2021/12/08 13:55:54;;;;;;;13.90;10.55;;;1.50;99.90;;;;;;4956059;28;20570;-76
2021/12/08 13:58:22;;;;;;;14.73;10.98;;;1.40;99.90;;;;;;4951302;28;20067;-76
2021/12/08 14:00:49;;;;;;;17.25;11.82;;;1.40;99.90;;;;;;4941114;28;20044;-76
2021/12/08 14:03:24;;;;;;;17.15;12.77;;;1.50;99.90;;;;;;4957609;28;20055;-76
2021/12/08 14:05:59;;;;;;;17.80;13.30;;;1.50;99.90;;;;;;4973083;28;20093;-76
2021/12/08 14:08:36;;;;;;;15.40;11.23;;;1.50;99.90;;;;;;4973259;28;20055;-76
2021/12/08 14:11:10;;;;;;;16.88;10.63;;;1.50;99.90;;;;;;4973730;28;20054;-76
2021/12/08 14:13:45;;;;;;;14.60;10.07;;;1.50;99.90;;;;;;4942784;28;20105;-76
2021/12/08 14:16:23;;;;;;;13.02;9.80;;;1.40;99.90;;;;;;4989943;28;20505;-76
2021/12/08 14:18:51;;;;;;;15.15;10.55;;;1.50;99.90;;;;;;4995467;28;20413;-76
2021/12/08 14:21:31;;;;;;;12.25;9.75;;;1.40;99.90;;;;;;4988024;28;20046;-76